Time;durP1;ratioP1;P1;durP2;ratioP2;P2;SDS_P1;SDS_P2;PMS_P1;PMS_P2;Temp;Humidity;BMP_temperature;BMP_pressure;BME280_temperature;BME280_humidity;BME280_pressure;Samples;Min_cycle;Max_cycle;Signal;HPM_P1;HPM_P2
2023/05/02 00:01:41;;;;;;;10.75;2.53;;;;;;;;;;6243995;23;20052;-60
2023/05/02 00:04:07;;;;;;;7.68;2.67;;;;;;;;;;6242321;22;20468;-60
2023/05/02 00:06:34;;;;;;;4.82;2.47;;;;;;;;;;6242287;22;20024;-60
2023/05/02 00:09:00;;;;;;;10.65;2.75;;;;;;;;;;6245159;22;20035;-60
2023/05/02 00:11:26;;;;;;;11.88;3.00;;;;;;;;;;6244168;23;20022;-60
2023/05/02 00:13:52;;;;;;;6.38;2.40;;;;;;;;;;6244694;23;20032;-60
2023/05/02 00:16:18;;;;;;;11.10;2.65;;;;;;;;;;6244653;23;20016;-60
2023/05/02 00:18:44;;;;;;;8.55;3.80;;;;;;;;;;6244838;23;20349;-60
2023/05/02 00:21:10;;;;;;;9.48;2.72;;;;;;;;;;6245585;23;20079;-60
2023/05/02 00:23:36;;;;;;;13.10;3.28;;;;;;;;;;6244122;23;20020;-60
2023/05/02 00:26:02;;;;;;;8.25;2.97;;;;;;;;;;6243085;23;20106;-60
2023/05/02 00:28:28;;;;;;;11.65;4.35;;;;;;;;;;6242141;23;20024;-60
2023/05/02 00:30:54;;;;;;;8.63;2.85;;;;;;;;;;6244477;23;20083;-60
2023/05/02 00:33:20;;;;;;;9.57;2.72;;;;;;;;;;6241077;23;20032;-60
2023/05/02 00:35:46;;;;;;;6.95;3.00;;;;;;;;;;6242962;23;20444;-60
2023/05/02 00:38:12;;;;;;;12.02;2.80;;;;;;;;;;6245128;23;20059;-60
2023/05/02 00:40:43;;;;;;;13.18;3.00;;;;;;;;;;6242464;23;20031;-60
2023/05/02 00:43:09;;;;;;;7.43;2.60;;;;;;;;;;6241942;23;20013;-60
2023/05/02 00:45:36;;;;;;;7.72;2.95;;;;;;;;;;6243833;23;20027;-60
2023/05/02 00:48:02;;;;;;;7.75;2.40;;;;;;;;;;6244846;23;20027;-60
2023/05/02 00:50:28;;;;;;;7.18;2.70;;;;;;;;;;6244311;23;20103;-60
2023/05/02 00:52:55;;;;;;;6.90;2.45;;;;;;;;;;6245235;23;20027;-60
2023/05/02 00:55:21;;;;;;;8.45;3.00;;;;;;;;;;6217488;23;20345;-60
2023/05/02 00:57:48;;;;;;;10.20;3.45;;;;;;;;;;6244401;23;20502;-60
2023/05/02 01:00:14;;;;;;;11.40;2.83;;;;;;;;;;6244500;22;20020;-60
2023/05/02 01:02:56;;;;;;;11.30;2.90;;;;;;;;;;6243182;23;20020;-60
2023/05/02 01:05:33;;;;;;;5.20;2.80;;;;;;;;;;6245178;23;20150;-60
2023/05/02 01:08:10;;;;;;;11.93;2.88;;;;;;;;;;6244550;23;20333;-60
2023/05/02 01:10:48;;;;;;;7.65;2.67;;;;;;;;;;6245279;22;20016;-60
2023/05/02 01:13:22;;;;;;;7.57;2.40;;;;;;;;;;6242744;23;20055;-60
2023/05/02 01:15:50;;;;;;;6.20;2.30;;;;;;;;;;6243683;23;20023;-60
2023/05/02 01:18:17;;;;;;;4.70;2.08;;;;;;;;;;6243311;23;20110;-60
2023/05/02 01:20:46;;;;;;;6.50;2.13;;;;;;;;;;6243711;23;20021;-60
2023/05/02 01:23:25;;;;;;;5.30;2.28;;;;;;;;;;6243233;23;20024;-60
2023/05/02 01:26:09;;;;;;;7.72;1.77;;;;;;;;;;6241917;23;20115;-60
2023/05/02 01:28:55;;;;;;;5.80;1.90;;;;;;;;;;6243557;23;20484;-60
2023/05/02 01:31:22;;;;;;;7.70;2.13;;;;;;;;;;6242875;23;20016;-60
2023/05/02 01:33:48;;;;;;;10.55;2.53;;;;;;;;;;6244755;23;20016;-60
2023/05/02 01:36:16;;;;;;;6.22;2.40;;;;;;;;;;6244713;23;20408;-60
2023/05/02 01:38:42;;;;;;;6.75;2.75;;;;;;;;;;6245314;23;20429;-60
2023/05/02 01:41:09;;;;;;;3.08;1.77;;;;;;;;;;6244813;23;20444;-60
2023/05/02 01:43:36;;;;;;;6.43;2.03;;;;;;;;;;6244675;23;20043;-60
2023/05/02 01:46:03;;;;;;;4.57;2.28;;;;;;;;;;6244575;23;20019;-60
2023/05/02 01:48:30;;;;;;;7.57;2.58;;;;;;;;;;6244888;23;20027;-60
2023/05/02 01:50:57;;;;;;;3.83;2.08;;;;;;;;;;6245176;22;20074;-60
2023/05/02 01:53:24;;;;;;;6.82;2.13;;;;;;;;;;6244579;22;20336;-60
2023/05/02 01:55:52;;;;;;;11.98;4.95;;;;;;;;;;6245192;23;20016;-60
2023/05/02 01:58:18;;;;;;;11.85;3.17;;;;;;;;;;6244162;23;20020;-60
2023/05/02 02:00:45;;;;;;;14.63;4.10;;;;;;;;;;6244840;23;20039;-60
2023/05/02 02:03:11;;;;;;;12.38;4.60;;;;;;;;;;6244900;23;20528;-60
2023/05/02 02:05:39;;;;;;;10.85;2.80;;;;;;;;;;6244453;23;20100;-60
2023/05/02 02:08:05;;;;;;;17.88;4.22;;;;;;;;;;6244343;23;20155;-60
2023/05/02 02:10:33;;;;;;;20.90;3.55;;;;;;;;;;6242535;23;20055;-60
2023/05/02 02:13:16;;;;;;;13.10;3.40;;;;;;;;;;6244828;23;20023;-60
2023/05/02 02:15:44;;;;;;;18.05;3.30;;;;;;;;;;6242086;23;20024;-60
2023/05/02 02:18:18;;;;;;;16.00;3.60;;;;;;;;;;6245016;23;20035;-60
2023/05/02 02:20:45;;;;;;;12.50;3.30;;;;;;;;;;6245013;23;20063;-60
2023/05/02 02:23:13;;;;;;;22.27;3.95;;;;;;;;;;6243754;23;20012;-60
2023/05/02 02:25:39;;;;;;;11.73;2.65;;;;;;;;;;6245037;23;20020;-60
2023/05/02 02:28:06;;;;;;;15.05;3.08;;;;;;;;;;6243361;23;20028;-60
2023/05/02 02:30:33;;;;;;;17.67;2.95;;;;;;;;;;6244088;23;20332;-60
2023/05/02 02:32:59;;;;;;;13.98;3.08;;;;;;;;;;6244016;22;20023;-60
2023/05/02 02:35:37;;;;;;;17.45;3.50;;;;;;;;;;6243136;23;20024;-60
2023/05/02 02:38:22;;;;;;;12.80;2.63;;;;;;;;;;6244346;22;20047;-60
2023/05/02 02:41:01;;;;;;;14.43;3.67;;;;;;;;;;6244741;23;20035;-60
2023/05/02 02:43:36;;;;;;;13.48;3.33;;;;;;;;;;6242170;23;20425;-60
2023/05/02 02:46:20;;;;;;;16.90;3.38;;;;;;;;;;6217243;23;20471;-60
2023/05/02 02:49:09;;;;;;;18.33;4.53;;;;;;;;;;6243994;23;20058;-60
2023/05/02 02:51:50;;;;;;;24.88;4.03;;;;;;;;;;6231623;23;20023;-60
2023/05/02 02:54:21;;;;;;;15.37;3.27;;;;;;;;;;6243823;23;20020;-60
2023/05/02 02:56:50;;;;;;;23.63;4.80;;;;;;;;;;6242807;23;20239;-60
2023/05/02 02:59:37;;;;;;;17.98;3.35;;;;;;;;;;6243995;23;20547;-60
2023/05/02 03:02:12;;;;;;;17.50;3.55;;;;;;;;;;6243002;23;20328;-60
2023/05/02 03:04:40;;;;;;;17.83;4.55;;;;;;;;;;6243927;23;20142;-60
2023/05/02 03:07:07;;;;;;;22.23;4.97;;;;;;;;;;6243334;22;20028;-60
2023/05/02 03:09:46;;;;;;;18.90;3.70;;;;;;;;;;6244594;23;20020;-60
2023/05/02 03:12:12;;;;;;;20.83;4.88;;;;;;;;;;6243156;23;20031;-59
2023/05/02 03:14:38;;;;;;;20.17;4.70;;;;;;;;;;6242596;23;20464;-60
2023/05/02 03:17:05;;;;;;;22.83;5.57;;;;;;;;;;6244415;23;20021;-60
2023/05/02 03:19:31;;;;;;;18.77;3.95;;;;;;;;;;6241716;23;20638;-60
2023/05/02 03:21:57;;;;;;;19.02;3.75;;;;;;;;;;6242655;23;20332;-59
2023/05/02 03:24:23;;;;;;;20.35;3.95;;;;;;;;;;6242660;23;20016;-60
2023/05/02 03:26:49;;;;;;;19.15;3.78;;;;;;;;;;6245394;23;20016;-60
2023/05/02 03:29:15;;;;;;;13.40;3.40;;;;;;;;;;6235704;22;20111;-60
2023/05/02 03:31:41;;;;;;;19.02;3.97;;;;;;;;;;6246729;23;20020;-60
2023/05/02 03:34:07;;;;;;;14.82;3.75;;;;;;;;;;6247022;23;20103;-60
2023/05/02 03:36:34;;;;;;;16.52;3.63;;;;;;;;;;6246126;23;20432;-59
2023/05/02 03:39:00;;;;;;;20.55;4.35;;;;;;;;;;6246495;23;20027;-60
2023/05/02 03:41:26;;;;;;;17.60;4.10;;;;;;;;;;6244244;23;20096;-60
2023/05/02 03:43:52;;;;;;;15.40;3.60;;;;;;;;;;6244856;23;20051;-60
2023/05/02 03:46:18;;;;;;;18.83;4.05;;;;;;;;;;6246120;23;20013;-60
2023/05/02 03:48:45;;;;;;;12.23;3.58;;;;;;;;;;6245046;23;20023;-60
2023/05/02 03:51:12;;;;;;;14.43;3.88;;;;;;;;;;6246004;22;20022;-60
2023/05/02 03:53:38;;;;;;;19.77;3.25;;;;;;;;;;6246293;22;20099;-60
2023/05/02 03:56:04;;;;;;;13.98;2.85;;;;;;;;;;6244034;23;20020;-60
2023/05/02 03:58:30;;;;;;;17.58;3.70;;;;;;;;;;6244399;23;20091;-60
2023/05/02 04:00:56;;;;;;;18.23;3.08;;;;;;;;;;6244018;23;20024;-59
2023/05/02 04:03:23;;;;;;;17.00;3.58;;;;;;;;;;6243549;23;20020;-60
2023/05/02 04:05:50;;;;;;;14.60;3.03;;;;;;;;;;6244112;23;20095;-60
2023/05/02 04:08:16;;;;;;;13.70;2.38;;;;;;;;;;6245960;22;20016;-60
2023/05/02 04:10:42;;;;;;;14.02;3.00;;;;;;;;;;6244970;23;20023;-60
2023/05/02 04:13:08;;;;;;;8.90;2.25;;;;;;;;;;6246218;23;20383;-60
2023/05/02 04:15:34;;;;;;;20.42;2.70;;;;;;;;;;6245516;23;20738;-59
2023/05/02 04:18:00;;;;;;;11.85;2.58;;;;;;;;;;6244078;23;20106;-60
2023/05/02 04:20:26;;;;;;;15.93;2.58;;;;;;;;;;6244901;23;20012;-60
2023/05/02 04:22:52;;;;;;;12.45;3.15;;;;;;;;;;6245485;23;20016;-60
2023/05/02 04:25:18;;;;;;;8.10;2.25;;;;;;;;;;6244813;23;20015;-60
2023/05/02 04:27:44;;;;;;;9.23;2.88;;;;;;;;;;6244708;23;20415;-60
2023/05/02 04:30:11;;;;;;;9.63;2.13;;;;;;;;;;6246124;23;20052;-59
2023/05/02 04:32:37;;;;;;;9.30;2.42;;;;;;;;;;6244217;23;20051;-60
2023/05/02 04:35:04;;;;;;;13.05;2.60;;;;;;;;;;6246038;23;20012;-60
2023/05/02 04:37:30;;;;;;;10.07;2.05;;;;;;;;;;6245406;22;20027;-60
2023/05/02 04:39:56;;;;;;;11.38;2.20;;;;;;;;;;6245766;23;20020;-60
2023/05/02 04:42:22;;;;;;;8.90;1.83;;;;;;;;;;6245412;23;20073;-60
2023/05/02 04:44:49;;;;;;;11.40;2.60;;;;;;;;;;6244560;23;20021;-60
2023/05/02 04:47:15;;;;;;;9.10;2.17;;;;;;;;;;6242859;23;20437;-60
2023/05/02 04:49:41;;;;;;;10.35;1.73;;;;;;;;;;6244054;23;20121;-59
2023/05/02 04:52:09;;;;;;;8.70;2.30;;;;;;;;;;6244857;22;20023;-60
2023/05/02 04:54:35;;;;;;;7.13;1.52;;;;;;;;;;6245533;22;20344;-60
2023/05/02 04:57:02;;;;;;;9.32;1.80;;;;;;;;;;6244717;23;20024;-60
2023/05/02 04:59:31;;;;;;;13.07;1.60;;;;;;;;;;6245812;22;20020;-59
2023/05/02 05:01:57;;;;;;;8.27;1.48;;;;;;;;;;6244198;23;20024;-60
2023/05/02 05:04:24;;;;;;;8.80;1.95;;;;;;;;;;6245899;23;20059;-60
2023/05/02 05:06:50;;;;;;;8.98;1.50;;;;;;;;;;6244583;22;20380;-60
2023/05/02 05:09:16;;;;;;;10.93;1.77;;;;;;;;;;6244785;23;20023;-60
2023/05/02 05:11:44;;;;;;;10.02;1.77;;;;;;;;;;6244351;23;20138;-60
2023/05/02 05:14:10;;;;;;;5.22;1.42;;;;;;;;;;6244576;22;20016;-59
2023/05/02 05:16:36;;;;;;;9.13;1.45;;;;;;;;;;6244456;22;20027;-60
2023/05/02 05:19:03;;;;;;;20.23;2.10;;;;;;;;;;6245146;23;20055;-60
2023/05/02 05:21:29;;;;;;;6.15;1.42;;;;;;;;;;6243096;23;20020;-60
2023/05/02 05:23:56;;;;;;;8.45;1.38;;;;;;;;;;6244620;22;20101;-60
2023/05/02 05:26:23;;;;;;;4.95;1.27;;;;;;;;;;6244807;23;20013;-60
2023/05/02 05:28:50;;;;;;;10.75;1.58;;;;;;;;;;6245133;22;20016;-60
2023/05/02 05:31:16;;;;;;;5.82;1.52;;;;;;;;;;6244960;22;20318;-60
2023/05/02 05:33:43;;;;;;;9.88;1.88;;;;;;;;;;6245052;23;20020;-60
2023/05/02 05:36:10;;;;;;;8.00;1.83;;;;;;;;;;6244809;23;20020;-60
2023/05/02 05:38:36;;;;;;;9.27;2.25;;;;;;;;;;6218078;23;20056;-60
2023/05/02 05:41:04;;;;;;;6.45;1.33;;;;;;;;;;6243391;23;20044;-60
2023/05/02 05:43:30;;;;;;;6.50;1.73;;;;;;;;;;6243485;23;20016;-60
2023/05/02 05:45:56;;;;;;;6.88;1.65;;;;;;;;;;6242109;23;20117;-61
2023/05/02 05:48:23;;;;;;;10.38;1.88;;;;;;;;;;6243897;23;20016;-61
2023/05/02 05:50:49;;;;;;;6.10;1.52;;;;;;;;;;6242728;23;20455;-60
2023/05/02 05:53:15;;;;;;;8.98;1.40;;;;;;;;;;6244852;23;20473;-60
2023/05/02 05:55:41;;;;;;;5.88;1.58;;;;;;;;;;6245050;23;20016;-61
2023/05/02 05:58:07;;;;;;;8.85;1.83;;;;;;;;;;6244880;23;20052;-60
2023/05/02 06:00:34;;;;;;;7.88;1.60;;;;;;;;;;6243398;23;20023;-61
2023/05/02 06:03:00;;;;;;;8.23;1.58;;;;;;;;;;6243998;23;20106;-60
2023/05/02 06:05:27;;;;;;;7.15;1.90;;;;;;;;;;6242752;23;20020;-60
2023/05/02 06:07:53;;;;;;;7.60;2.65;;;;;;;;;;6242785;23;20020;-60
2023/05/02 06:10:19;;;;;;;6.90;1.60;;;;;;;;;;6243077;23;20020;-61
2023/05/02 06:12:45;;;;;;;9.10;1.50;;;;;;;;;;6245320;23;20346;-60
2023/05/02 06:15:11;;;;;;;11.13;2.05;;;;;;;;;;6243038;23;20016;-61
2023/05/02 06:17:37;;;;;;;12.52;2.45;;;;;;;;;;6244737;23;20432;-60
2023/05/02 06:20:04;;;;;;;10.45;2.33;;;;;;;;;;6216428;23;20024;-60
2023/05/02 06:22:30;;;;;;;9.57;2.10;;;;;;;;;;6243211;23;20013;-60
2023/05/02 06:24:56;;;;;;;12.77;2.00;;;;;;;;;;6243930;23;20020;-60
2023/05/02 06:27:22;;;;;;;10.20;1.88;;;;;;;;;;6243473;23;20085;-60
2023/05/02 06:29:52;;;;;;;9.73;1.95;;;;;;;;;;6245077;23;20103;-60
2023/05/02 06:32:18;;;;;;;13.02;2.05;;;;;;;;;;6242843;23;20429;-60
2023/05/02 06:34:44;;;;;;;7.28;1.63;;;;;;;;;;6243946;23;20086;-60
2023/05/02 06:37:10;;;;;;;10.43;1.77;;;;;;;;;;6243409;23;20016;-60
2023/05/02 06:39:36;;;;;;;12.25;1.70;;;;;;;;;;6244616;22;20095;-60
2023/05/02 06:42:03;;;;;;;8.00;1.70;;;;;;;;;;6243636;23;20462;-60
2023/05/02 06:44:29;;;;;;;10.95;1.83;;;;;;;;;;6241886;23;20099;-60
2023/05/02 06:46:55;;;;;;;9.15;1.85;;;;;;;;;;6244183;23;20030;-60
2023/05/02 06:49:21;;;;;;;11.20;1.95;;;;;;;;;;6243781;23;20312;-60
2023/05/02 06:51:48;;;;;;;9.88;1.75;;;;;;;;;;6242985;23;20309;-60
2023/05/02 06:54:14;;;;;;;8.73;1.95;;;;;;;;;;6243967;23;20020;-60
2023/05/02 06:56:41;;;;;;;5.60;1.60;;;;;;;;;;6244882;22;20091;-60
2023/05/02 06:59:07;;;;;;;11.52;1.95;;;;;;;;;;6243313;23;20381;-60
2023/05/02 07:01:33;;;;;;;7.00;1.70;;;;;;;;;;6244500;23;20445;-60
2023/05/02 07:03:59;;;;;;;9.05;2.45;;;;;;;;;;6244396;23;20023;-60
2023/05/02 07:06:25;;;;;;;9.55;1.58;;;;;;;;;;6242925;23;20020;-60
2023/05/02 07:08:51;;;;;;;9.00;1.83;;;;;;;;;;6244732;22;20067;-60
2023/05/02 07:11:18;;;;;;;9.15;1.73;;;;;;;;;;6244147;23;20020;-60
2023/05/02 07:13:45;;;;;;;7.55;1.75;;;;;;;;;;6243851;22;20471;-59
2023/05/02 07:16:24;;;;;;;5.47;1.90;;;;;;;;;;6231314;22;20016;-60
2023/05/02 07:18:50;;;;;;;8.03;1.80;;;;;;;;;;6204024;23;20020;-60
2023/05/02 07:21:18;;;;;;;6.85;1.85;;;;;;;;;;6214931;23;20084;-60
2023/05/02 07:23:44;;;;;;;6.63;1.60;;;;;;;;;;6214109;23;20024;-60
2023/05/02 07:26:10;;;;;;;11.50;1.15;;;;;;;;;;6213996;23;20013;-60
2023/05/02 07:28:36;;;;;;;12.77;2.50;;;;;;;;;;6214131;23;20095;-60
2023/05/02 07:31:02;;;;;;;11.88;1.67;;;;;;;;;;6214280;23;20064;-60
2023/05/02 07:33:28;;;;;;;8.07;2.20;;;;;;;;;;6186700;23;20017;-60
2023/05/02 07:35:55;;;;;;;7.38;2.53;;;;;;;;;;6214310;23;20017;-59
2023/05/02 07:38:21;;;;;;;8.65;2.05;;;;;;;;;;6187153;23;20017;-60
2023/05/02 07:40:47;;;;;;;6.38;1.65;;;;;;;;;;6187472;23;20460;-60
2023/05/02 07:43:14;;;;;;;6.63;1.90;;;;;;;;;;6213584;23;20021;-60
2023/05/02 07:45:40;;;;;;;7.82;1.60;;;;;;;;;;6213847;23;20021;-60
2023/05/02 07:48:06;;;;;;;7.70;2.35;;;;;;;;;;6213674;23;20026;-60
2023/05/02 07:50:32;;;;;;;9.50;2.00;;;;;;;;;;6187912;23;20025;-60
2023/05/02 07:52:59;;;;;;;9.18;3.05;;;;;;;;;;6214624;23;20092;-59
2023/05/02 07:55:26;;;;;;;7.40;2.25;;;;;;;;;;6214147;23;20021;-60
2023/05/02 07:57:52;;;;;;;8.95;1.98;;;;;;;;;;6213943;23;20021;-60
2023/05/02 08:00:18;;;;;;;7.65;2.00;;;;;;;;;;6186640;23;20333;-60
2023/05/02 08:02:45;;;;;;;7.65;1.80;;;;;;;;;;6214088;23;20021;-60
2023/05/02 08:05:11;;;;;;;9.95;2.42;;;;;;;;;;6213649;23;20074;-60
2023/05/02 08:07:37;;;;;;;10.48;2.05;;;;;;;;;;6212622;23;20021;-60
2023/05/02 08:10:04;;;;;;;5.88;1.90;;;;;;;;;;6213381;23;20024;-60
2023/05/02 08:12:30;;;;;;;7.95;1.95;;;;;;;;;;6215411;23;20020;-60
2023/05/02 08:14:56;;;;;;;11.77;2.58;;;;;;;;;;6215614;23;20059;-60
2023/05/02 08:17:22;;;;;;;10.73;2.25;;;;;;;;;;6187884;23;20031;-60
2023/05/02 08:19:48;;;;;;;9.32;2.35;;;;;;;;;;6188800;23;20020;-61
2023/05/02 08:22:14;;;;;;;7.70;1.98;;;;;;;;;;6214853;23;20100;-60
2023/05/02 08:24:40;;;;;;;8.98;2.20;;;;;;;;;;6163787;23;20031;-60
2023/05/02 08:27:06;;;;;;;10.65;2.33;;;;;;;;;;6214469;23;20023;-60
2023/05/02 08:29:33;;;;;;;11.23;2.63;;;;;;;;;;6188414;23;20020;-60
2023/05/02 08:31:59;;;;;;;9.43;2.42;;;;;;;;;;6213011;23;20050;-60
2023/05/02 08:34:25;;;;;;;8.13;2.15;;;;;;;;;;6214622;23;20062;-60
2023/05/02 08:36:51;;;;;;;13.88;2.63;;;;;;;;;;6188254;23;20467;-60
2023/05/02 08:39:18;;;;;;;12.20;2.60;;;;;;;;;;6188437;23;20012;-60
2023/05/02 08:41:44;;;;;;;12.93;2.25;;;;;;;;;;6213546;23;20444;-60
2023/05/02 08:44:12;;;;;;;12.10;2.47;;;;;;;;;;6214592;23;20021;-60
2023/05/02 08:46:40;;;;;;;6.03;2.00;;;;;;;;;;6215286;23;20067;-60
2023/05/02 08:49:07;;;;;;;9.00;2.05;;;;;;;;;;6188588;23;20021;-60
2023/05/02 08:51:34;;;;;;;7.50;2.05;;;;;;;;;;6162229;23;20111;-59
2023/05/02 08:54:02;;;;;;;8.85;1.90;;;;;;;;;;6187031;23;20036;-60
2023/05/02 08:56:28;;;;;;;7.82;1.52;;;;;;;;;;6213791;23;20063;-60
2023/05/02 08:58:55;;;;;;;5.78;1.67;;;;;;;;;;6213619;23;20020;-60
2023/05/02 09:01:23;;;;;;;7.72;1.85;;;;;;;;;;6163266;23;20025;-60
2023/05/02 09:03:49;;;;;;;7.47;1.83;;;;;;;;;;6215036;23;20060;-60
2023/05/02 09:06:19;;;;;;;4.80;1.83;;;;;;;;;;6188395;23;20093;-60
2023/05/02 09:08:49;;;;;;;8.05;2.45;;;;;;;;;;6215623;23;20023;-60
2023/05/02 09:11:16;;;;;;;6.60;1.97;;;;;;;;;;6215351;23;20059;-60
2023/05/02 09:13:43;;;;;;;9.60;2.50;;;;;;;;;;6214827;23;20027;-60
2023/05/02 09:16:12;;;;;;;9.10;2.20;;;;;;;;;;6188957;23;20024;-60
2023/05/02 09:18:39;;;;;;;7.57;1.98;;;;;;;;;;6214393;23;20051;-60
2023/05/02 09:21:07;;;;;;;6.78;1.65;;;;;;;;;;6214593;23;20028;-60
2023/05/02 09:23:37;;;;;;;7.60;1.40;;;;;;;;;;6214446;23;20024;-60
2023/05/02 09:26:10;;;;;;;8.40;1.70;;;;;;;;;;6187879;23;20013;-60
2023/05/02 09:28:50;;;;;;;4.57;1.33;;;;;;;;;;6187502;23;20013;-60
2023/05/02 09:31:17;;;;;;;4.53;1.35;;;;;;;;;;6188378;23;20016;-60
2023/05/02 09:33:44;;;;;;;8.07;1.95;;;;;;;;;;6215095;23;20016;-60
2023/05/02 09:36:17;;;;;;;7.05;1.15;;;;;;;;;;6214527;23;20441;-60
2023/05/02 09:38:44;;;;;;;4.72;1.30;;;;;;;;;;6214372;23;20514;-60
2023/05/02 09:41:10;;;;;;;9.63;1.60;;;;;;;;;;6215413;23;20028;-60
2023/05/02 09:43:37;;;;;;;6.20;1.92;;;;;;;;;;6215083;23;20025;-60
2023/05/02 09:46:04;;;;;;;5.30;1.30;;;;;;;;;;6188000;23;20024;-60
2023/05/02 09:48:32;;;;;;;6.03;1.40;;;;;;;;;;6214992;23;20025;-60
2023/05/02 09:50:58;;;;;;;3.72;1.30;;;;;;;;;;6214905;23;20408;-60
2023/05/02 09:53:25;;;;;;;5.07;1.00;;;;;;;;;;6213905;23;20024;-60
2023/05/02 09:56:01;;;;;;;7.10;1.27;;;;;;;;;;6215137;23;20024;-60
2023/05/02 09:58:29;;;;;;;4.88;0.95;;;;;;;;;;6187151;23;20039;-60
2023/05/02 10:00:56;;;;;;;4.25;1.23;;;;;;;;;;6213322;23;20020;-63
2023/05/02 10:03:23;;;;;;;5.38;1.38;;;;;;;;;;6162670;23;20074;-60
2023/05/02 10:05:49;;;;;;;4.05;1.23;;;;;;;;;;6214802;23;20023;-60
2023/05/02 10:08:18;;;;;;;8.85;1.13;;;;;;;;;;6213355;23;20066;-60
2023/05/02 10:10:51;;;;;;;5.82;1.40;;;;;;;;;;6214415;23;20017;-60
2023/05/02 10:13:20;;;;;;;5.28;1.50;;;;;;;;;;6212128;23;20031;-60
2023/05/02 10:15:58;;;;;;;7.80;1.20;;;;;;;;;;6187062;23;20370;-60
2023/05/02 10:18:47;;;;;;;5.30;1.42;;;11.50;99.90;;;;;;6187199;23;20047;-60
2023/05/02 10:21:16;;;;;;;4.70;1.65;;;;;;;;;;6187473;23;20017;-60
2023/05/02 10:23:43;;;;;;;4.93;1.35;;;;;;;;;;6187407;23;20434;-60
2023/05/02 10:26:10;;;;;;;8.32;1.30;;;;;;;;;;6213583;23;20017;-60
2023/05/02 10:28:40;;;;;;;2.45;0.80;;;;;;;;;;6214344;23;20021;-60
2023/05/02 10:31:11;;;;;;;3.45;0.93;;;;;;;;;;6186857;23;20079;-60
2023/05/02 10:33:38;;;;;;;4.70;1.10;;;;;;;;;;6187122;23;20021;-59
2023/05/02 10:36:04;;;;;;;3.10;0.82;;;;;;;;;;6213065;23;20020;-60
2023/05/02 10:38:31;;;;;;;3.20;0.95;;;;;;;;;;6213700;23;20440;-60
2023/05/02 10:41:02;;;;;;;4.65;1.10;;;;;;;;;;6185498;23;20017;-60
2023/05/02 10:43:32;;;;;;;1.30;0.77;;;;;;;;;;6213298;23;20024;-60
2023/05/02 10:45:58;;;;;;;3.63;1.05;;;;;;;;;;6212103;23;20496;-60
2023/05/02 10:48:25;;;;;;;3.17;0.88;;;;;;;;;;6187322;23;20031;-60
2023/05/02 10:51:00;;;;;;;2.53;0.90;;;;;;;;;;6213507;23;20469;-60
2023/05/02 10:53:36;;;;;;;4.45;1.58;;;;;;;;;;6214834;23;20091;-60
2023/05/02 10:56:14;;;;;;;7.05;1.33;;;;;;;;;;6187462;23;20020;-60
2023/05/02 10:58:44;;;;;;;4.70;0.98;;;;;;;;;;6214335;23;20455;-60
2023/05/02 11:01:26;;;;;;;1.52;0.75;;;;;;;;;;6212564;23;20021;-60
2023/05/02 11:03:56;;;;;;;4.40;1.20;;;;;;;;;;6212825;23;20021;-60
2023/05/02 11:06:22;;;;;;;4.18;1.02;;;;;;;;;;6186293;23;20341;-60
2023/05/02 11:08:48;;;;;;;6.10;1.20;;;;;;;;;;6161805;23;20032;-61
2023/05/02 11:11:42;;;;;;;4.70;1.23;;;12.00;99.90;;;;;;6213947;23;20016;-60
2023/05/02 11:14:09;;;;;;;5.35;1.20;;;;;;;;;;6212522;23;20159;-61
2023/05/02 11:17:05;;;;;;;4.70;1.13;;;;;;;;;;6213188;23;20048;-60
2023/05/02 11:19:37;;;;;;;3.88;1.15;;;;;;;;;;6244318;23;20020;-61
2023/05/02 11:22:19;;;;;;;3.60;1.20;;;;;;;;;;6218085;23;20046;-59
2023/05/02 11:24:46;;;;;;;4.88;1.23;;;;;;;;;;6217001;23;20020;-59
2023/05/02 11:27:32;;;;;;;7.03;1.20;;;;;;;;;;6243940;23;20008;-60
2023/05/02 11:29:59;;;;;;;3.17;0.90;;;;;;;;;;6242404;23;20024;-59
2023/05/02 11:32:48;;;;;;;2.17;0.80;;;;;;;;;;6215659;23;20056;-61
2023/05/02 11:35:17;;;;;;;3.85;0.90;;;;;;;;;;6242994;23;20012;-61
2023/05/02 11:37:43;;;;;;;3.45;1.30;;;;;;;;;;6243429;23;20413;-61
2023/05/02 11:40:10;;;;;;;7.07;1.10;;;;;;;;;;6216581;23;20103;-61
2023/05/02 11:42:36;;;;;;;5.70;1.27;;;;;;;;;;6191389;23;20055;-61
2023/05/02 11:45:03;;;;;;;5.53;1.10;;;;;;;;;;6242037;23;20016;-61
2023/05/02 11:47:32;;;;;;;5.85;1.00;;;;;;;;;;6244470;23;20027;-61
2023/05/02 11:50:01;;;;;;;5.70;1.02;;;;;;;;;;6244711;23;20024;-61
2023/05/02 11:52:27;;;;;;;2.43;0.87;;;;;;;;;;6245855;23;20099;-61
2023/05/02 11:54:55;;;;;;;4.22;1.08;;;;;;;;;;6219261;23;20024;-61
2023/05/02 11:57:21;;;;;;;6.82;1.20;;;;;;;;;;6244810;23;20017;-61
2023/05/02 11:59:55;;;;;;;9.07;1.25;;;;;;;;;;6218566;23;20460;-61
2023/05/02 12:02:35;;;;;;;5.70;1.58;;;;;;;;;;6244011;23;20094;-61
2023/05/02 12:05:02;;;;;;;5.27;1.17;;;;;;;;;;6193332;23;20020;-61
2023/05/02 12:07:54;;;;;;;1.80;0.80;;;;;;;;;;6218558;23;20025;-61
2023/05/02 12:10:20;;;;;;;4.07;1.05;;;;;;;;;;6211551;23;20057;-61
2023/05/02 12:12:47;;;;;;;4.15;1.23;;;;;;;;;;6246205;23;20027;-61
2023/05/02 12:15:13;;;;;;;4.82;1.10;;;;;;;;;;6244210;23;20020;-61
2023/05/02 12:17:43;;;;;;;4.75;1.45;;;;;;;;;;6217214;23;20086;-61
2023/05/02 12:20:09;;;;;;;6.68;1.70;;;;;;;;;;6243301;23;20074;-59
2023/05/02 12:22:36;;;;;;;9.32;1.92;;;;;;;;;;6243216;23;20016;-58
2023/05/02 12:25:04;;;;;;;3.22;1.20;;;;;;;;;;6244010;23;20012;-59
2023/05/02 12:27:32;;;;;;;3.90;2.00;;;;;;;;;;6243103;23;20341;-59
2023/05/02 12:29:58;;;;;;;3.63;1.20;;;;;;;;;;6194486;23;20024;-59
2023/05/02 12:32:30;;;;;;;9.07;1.60;;;;;;;;;;6244566;23;20158;-60
2023/05/02 12:34:57;;;;;;;11.38;1.35;;;;;;;;;;6245485;23;20325;-59
2023/05/02 12:37:24;;;;;;;4.65;1.52;;;;;;;;;;6244122;23;20020;-59
2023/05/02 12:39:52;;;;;;;5.63;1.20;;;;;;;;;;6218716;23;20016;-59
2023/05/02 12:42:19;;;;;;;5.85;1.27;;;;;;;;;;6244724;23;20020;-59
2023/05/02 12:44:46;;;;;;;3.92;1.20;;;;;;;;;;6244282;23;20027;-59
2023/05/02 12:47:13;;;;;;;7.80;2.60;;;;;;;;;;6216933;23;20023;-59
2023/05/02 12:49:49;;;;;;;6.68;1.42;;;;;;;;;;6245142;23;20452;-59
2023/05/02 12:52:15;;;;;;;3.13;1.23;;;;;;;;;;6217106;23;20020;-59
2023/05/02 12:54:41;;;;;;;5.30;1.05;;;;;;;;;;6243038;23;20147;-59
2023/05/02 12:57:07;;;;;;;7.13;1.85;;;;;;;;;;6217907;23;20068;-59
2023/05/02 12:59:33;;;;;;;4.15;0.95;;;;;;;;;;6218315;23;20020;-59
2023/05/02 13:02:00;;;;;;;4.43;1.17;;;;;;;;;;6193829;23;20444;-59
2023/05/02 13:04:39;;;;;;;3.65;0.93;;;;;;;;;;6193289;23;20038;-59
2023/05/02 13:07:06;;;;;;;14.90;2.00;;;;;;;;;;6244544;23;20387;-59
2023/05/02 13:09:32;;;;;;;13.45;2.72;;;;;;;;;;6244052;23;20024;-60
2023/05/02 13:11:59;;;;;;;6.93;1.40;;;;;;;;;;6193322;23;20032;-59
2023/05/02 13:14:25;;;;;;;4.97;0.93;;;;;;;;;;6217682;23;20059;-60
2023/05/02 13:16:52;;;;;;;5.30;1.33;;;;;;;;;;6217959;23;20024;-59
2023/05/02 13:19:21;;;;;;;4.40;1.70;;;;;;;;;;6244016;23;20441;-59
2023/05/02 13:21:47;;;;;;;5.40;1.35;;;;;;;;;;6192978;23;20078;-59
2023/05/02 13:24:16;;;;;;;3.38;1.13;;;;;;;;;;6218000;23;20306;-60
2023/05/02 13:26:42;;;;;;;3.78;1.15;;;;;;;;;;6218081;23;20027;-59
2023/05/02 13:29:10;;;;;;;6.13;1.20;;;;;;;;;;6193307;23;20030;-59
2023/05/02 13:31:36;;;;;;;16.55;2.38;;;;;;;;;;6245629;23;20070;-59
2023/05/02 13:34:03;;;;;;;4.18;1.08;;;;;;;;;;6217737;23;20162;-59
2023/05/02 13:36:30;;;;;;;3.33;0.90;;;;;;;;;;6244868;23;20447;-59
2023/05/02 13:38:56;;;;;;;4.03;0.88;;;;;;;;;;6218757;23;20031;-59
2023/05/02 13:41:23;;;;;;;6.20;2.00;;;;;;;;;;6217964;23;20020;-59
2023/05/02 13:43:49;;;;;;;3.35;0.90;;;;;;;;;;6218442;23;20082;-59
2023/05/02 13:46:15;;;;;;;4.28;1.00;;;;;;;;;;6244661;23;20016;-60
2023/05/02 13:48:42;;;;;;;2.90;1.00;;;;;;;;;;6244818;23;20387;-59
2023/05/02 13:51:08;;;;;;;4.45;1.10;;;;;;;;;;6218704;23;20013;-59
2023/05/02 13:53:34;;;;;;;7.95;1.38;;;;;;;;;;6217614;23;20031;-59
2023/05/02 13:56:01;;;;;;;4.72;1.27;;;;;;;;;;6244700;23;20020;-59
2023/05/02 13:58:27;;;;;;;6.28;1.08;;;;;;;;;;6217934;23;20495;-59
2023/05/02 14:00:53;;;;;;;7.10;1.30;;;;;;;;;;6217917;23;20016;-59
2023/05/02 14:03:19;;;;;;;4.95;1.52;;;;;;;;;;6217233;23;20016;-59
2023/05/02 14:05:45;;;;;;;4.65;1.20;;;;;;;;;;6218530;23;20016;-59
2023/05/02 14:08:16;;;;;;;3.05;0.95;;;;;;;;;;6218145;23;20509;-60
2023/05/02 14:10:43;;;;;;;6.50;1.17;;;;;;;;;;6217671;23;20012;-59
2023/05/02 14:13:09;;;;;;;4.07;1.00;;;;;;;;;;6217017;23;20020;-59
2023/05/02 14:15:36;;;;;;;4.45;0.82;;;;;;;;;;6217158;23;20024;-59
2023/05/02 14:18:02;;;;;;;2.97;0.88;;;;;;;;;;6244000;23;20020;-60
2023/05/02 14:20:28;;;;;;;3.58;1.08;;;;;;;;;;6244594;23;20020;-59
2023/05/02 14:22:54;;;;;;;2.13;0.80;;;;;;;;;;6244314;23;20031;-59
2023/05/02 14:25:20;;;;;;;7.45;0.88;;;;;;;;;;6216632;23;20027;-59
2023/05/02 14:27:49;;;;;;;3.08;0.70;;;;;;;;;;6244677;23;20051;-60
2023/05/02 14:30:15;;;;;;;3.55;0.80;;;;;;;;;;6243042;23;20460;-60
2023/05/02 14:32:41;;;;;;;3.85;0.75;;;;;;;;;;6191888;23;20020;-59
2023/05/02 14:35:07;;;;;;;4.60;1.30;;;;;;;;;;6217000;23;20016;-60
2023/05/02 14:37:33;;;;;;;3.47;1.00;;;;;;;;;;6216964;23;20445;-60
2023/05/02 14:40:00;;;;;;;3.10;1.00;;;;;;;;;;6244663;23;20016;-60
2023/05/02 14:42:26;;;;;;;2.03;0.60;;;;;;;;;;6192069;23;20337;-60
2023/05/02 14:44:52;;;;;;;3.22;0.70;;;;;;;;;;6244243;23;20074;-59